Time;durP1;ratioP1;P1;durP2;ratioP2;P2;SDS_P1;SDS_P2;PMS_P1;PMS_P2;Temp;Humidity;BMP_temperature;BMP_pressure;BME280_temperature;BME280_humidity;BME280_pressure;Samples;Min_cycle;Max_cycle;Signal;HPM_P1;HPM_P2
2023/05/11 00:00:32;;;;;;;14.57;11.80;;;;;;;9.54;100.00;93243.94;5065167;28;20052;-71
2023/05/11 00:02:58;;;;;;;14.80;11.95;;;;;;;9.64;100.00;93240.97;5066166;28;20056;-71
2023/05/11 00:05:27;;;;;;;15.27;11.75;;;;;;;9.71;100.00;93241.72;5055911;28;20049;-71
2023/05/11 00:07:53;;;;;;;14.40;11.57;;;;;;;9.74;100.00;93243.88;5055889;28;20055;-71
2023/05/11 00:10:20;;;;;;;13.57;11.55;;;;;;;9.79;100.00;93245.84;5068901;28;20045;-71
2023/05/11 00:12:47;;;;;;;16.88;11.38;;;;;;;9.70;100.00;93218.81;5068844;28;20470;-70
2023/05/11 00:15:14;;;;;;;15.68;12.30;;;;;;;9.92;100.00;93245.00;5068584;28;20047;-70
2023/05/11 00:17:41;;;;;;;16.70;11.93;;;;;;;9.95;100.00;93244.56;5068530;28;20048;-70
2023/05/11 00:20:09;;;;;;;14.27;11.52;;;;;;;10.00;100.00;93243.97;5068385;28;20114;-71
2023/05/11 00:22:37;;;;;;;18.20;12.07;;;;;;;10.02;100.00;93247.13;5068323;28;20490;-71
2023/05/11 00:25:05;;;;;;;16.52;13.45;;;;;;;10.03;100.00;93244.34;5068448;28;20055;-71
2023/05/11 00:27:32;;;;;;;17.98;14.15;;;;;;;10.02;100.00;93242.78;5068020;28;20044;-71
2023/05/11 00:29:59;;;;;;;15.60;12.13;;;;;;;9.95;100.00;93239.44;5068157;28;20048;-71
2023/05/11 00:32:25;;;;;;;14.07;10.82;;;;;;;9.95;100.00;93239.44;5068320;28;20063;-71
2023/05/11 00:34:52;;;;;;;14.45;11.23;;;;;;;9.77;100.00;93245.25;5068196;28;20056;-71
2023/05/11 00:37:19;;;;;;;14.18;11.95;;;;;;;9.81;100.00;93253.34;5068092;28;20041;-71
2023/05/11 00:39:47;;;;;;;17.90;12.77;;;;;;;9.86;100.00;93251.72;5068467;28;20115;-71
2023/05/11 00:42:14;;;;;;;17.13;13.23;;;;;;;9.91;100.00;93247.75;5067914;28;20044;-71
2023/05/11 00:44:41;;;;;;;18.60;14.30;;;;;;;9.88;100.00;93243.81;5067730;28;20049;-71
2023/05/11 00:47:08;;;;;;;16.52;13.32;;;;;;;9.96;100.00;93253.06;5067297;28;20442;-71
2023/05/11 00:49:35;;;;;;;16.52;11.65;;;;;;;9.93;100.00;93241.44;5048223;28;20432;-71
2023/05/11 00:52:02;;;;;;;15.88;11.55;;;;;;;9.92;100.00;93249.31;5047834;28;20049;-71
2023/05/11 00:54:29;;;;;;;15.00;11.70;;;;;;;9.73;100.00;93244.84;5047061;28;20076;-71
2023/05/11 00:56:57;;;;;;;14.10;11.02;;;;;;;9.68;100.00;93243.91;5050503;28;20099;-71
2023/05/11 00:59:24;;;;;;;17.10;12.15;;;;;;;9.72;100.00;93247.66;5067399;28;20036;-71
2023/05/11 01:01:51;;;;;;;16.90;12.32;;;;;;;9.59;100.00;93210.78;5067776;28;20084;-71
2023/05/11 01:04:18;;;;;;;14.75;11.30;;;;;;;9.68;100.00;93238.78;5067596;28;20558;-71
2023/05/11 01:06:52;;;;;;;15.18;11.65;;;;;;;9.57;100.00;93237.59;5067960;28;20049;-71
2023/05/11 01:09:40;;;;;;;16.33;13.25;;;;;;;9.55;100.00;93242.97;5067600;28;20044;-71
2023/05/11 01:12:15;;;;;;;15.98;11.70;;;;;;;9.62;100.00;93232.66;5067476;28;20056;-71
2023/05/11 01:14:49;;;;;;;14.75;12.27;;;;;;;9.63;100.00;93234.25;5067911;28;20102;-71
2023/05/11 01:17:23;;;;;;;15.32;11.75;;;;;;;9.63;100.00;93234.25;5067461;28;20051;-71
2023/05/11 01:19:56;;;;;;;15.68;11.88;;;;;;;9.70;100.00;93237.59;5067456;28;20102;-71
2023/05/11 01:22:38;;;;;;;13.65;11.50;;;;;;;9.77;100.00;93237.56;5067589;28;20135;-71
2023/05/11 01:25:23;;;;;;;15.15;11.13;;;;;;;9.82;100.00;93244.63;5067290;28;20138;-71
2023/05/11 01:28:23;;;;;;;13.30;11.13;;;;;;;9.82;100.00;93249.78;5067092;28;20045;-71
2023/05/11 01:30:54;;;;;;;12.65;10.68;;;;;;;9.83;100.00;93249.56;5067435;28;20048;-71
2023/05/11 01:33:26;;;;;;;13.93;10.85;;;;;;;9.79;100.00;93245.03;5067497;28;20052;-71
2023/05/11 01:36:00;;;;;;;13.55;10.60;;;;;;;9.80;100.00;93234.56;5067437;28;20044;-71
2023/05/11 01:38:30;;;;;;;12.98;11.57;;;;;;;9.87;100.00;93243.03;5067260;28;20465;-71
2023/05/11 01:41:00;;;;;;;16.52;11.75;;;;;;;9.91;100.00;93247.75;5067406;28;20458;-71
2023/05/11 01:43:29;;;;;;;14.00;11.65;;;;;;;9.71;100.00;93215.25;5067118;28;20473;-71
2023/05/11 01:46:01;;;;;;;14.93;12.35;;;;;;;9.93;100.00;93245.75;5066487;28;20061;-71
2023/05/11 01:48:30;;;;;;;15.73;11.02;;;;;;;9.93;100.00;93248.34;5067296;28;20044;-72
2023/05/11 01:51:00;;;;;;;12.80;11.05;;;;;;;9.85;100.00;93250.16;5059088;28;20498;-72
2023/05/11 01:53:30;;;;;;;15.13;11.75;;;;;;;9.83;100.00;93249.56;5061856;28;20060;-72
2023/05/11 01:55:59;;;;;;;15.40;11.80;;;;;;;9.90;100.00;93249.53;5060536;28;20095;-72
2023/05/11 01:58:28;;;;;;;14.85;12.02;;;;;;;9.90;100.00;93249.53;5067175;28;20045;-72
2023/05/11 02:00:55;;;;;;;15.77;11.90;;;;;;;9.84;100.00;93250.34;5066974;28;20125;-72
2023/05/11 02:03:26;;;;;;;15.30;12.35;;;;;;;9.70;100.00;93224.75;5067267;28;20048;-72
2023/05/11 02:05:54;;;;;;;13.95;11.88;;;;;;;9.90;100.00;93249.53;5067832;28;20095;-72
2023/05/11 02:08:22;;;;;;;12.85;10.55;;;;;;;9.88;100.00;93243.81;5070183;28;20041;-72
2023/05/11 02:10:50;;;;;;;12.02;10.75;;;;;;;9.85;100.00;93246.78;5070766;28;20516;-72
2023/05/11 02:13:18;;;;;;;13.57;11.50;;;;;;;9.82;100.00;93244.63;5070713;28;20048;-72
2023/05/11 02:15:48;;;;;;;15.82;11.75;;;;;;;9.66;100.00;93246.66;5069790;28;20053;-72
2023/05/11 02:18:16;;;;;;;15.88;12.65;;;;;;;9.55;100.00;93240.41;5070791;28;20559;-72
2023/05/11 02:20:46;;;;;;;13.70;11.75;;;;;;;9.53;100.00;93239.78;5070645;28;20040;-72
2023/05/11 02:23:13;;;;;;;13.80;12.15;;;;;;;9.57;100.00;93243.53;5070660;28;20040;-72
2023/05/11 02:25:41;;;;;;;14.45;12.75;;;;;;;9.56;100.00;93229.16;5070388;28;20056;-72
2023/05/11 02:28:07;;;;;;;14.00;11.95;;;;;;;9.67;100.00;93239.75;5044413;28;20044;-72
2023/05/11 02:30:39;;;;;;;15.77;12.70;;;;;;;9.69;100.00;93238.56;5070486;28;20048;-71
2023/05/11 02:33:08;;;;;;;16.48;12.15;;;;;;;9.70;100.00;93235.00;5070406;28;20075;-71
2023/05/11 02:35:39;;;;;;;16.10;12.52;;;;;;;9.75;100.00;93230.06;5069846;28;20045;-71
2023/05/11 02:38:08;;;;;;;14.43;12.02;;;;;;;9.79;100.00;93230.44;5070844;28;20125;-71
2023/05/11 02:40:42;;;;;;;15.45;13.15;;;;;;;9.80;100.00;93237.13;5070508;28;20114;-72
2023/05/11 02:43:13;;;;;;;17.48;14.57;;;;;;;9.78;100.00;93228.88;5070214;28;20041;-72
2023/05/11 02:45:43;;;;;;;19.00;16.08;;;;;;;9.66;100.00;93215.88;5070471;28;20432;-72
2023/05/11 02:48:28;;;;;;;20.23;15.65;;;;;;;9.70;100.00;93229.88;5070017;28;20048;-72
2023/05/11 02:50:56;;;;;;;17.88;15.23;;;;;;;9.74;100.00;93222.56;5070147;28;20044;-72
2023/05/11 02:53:28;;;;;;;15.90;14.20;;;;;;;9.64;100.00;93235.84;5070323;28;20443;-71
2023/05/11 02:55:55;;;;;;;17.02;14.18;;;;;;;9.62;100.00;93232.66;5070015;28;20563;-71
2023/05/11 02:58:23;;;;;;;16.67;14.20;;;;;;;9.64;100.00;93228.13;5069434;28;20045;-71
2023/05/11 03:00:50;;;;;;;16.30;13.25;;;;;;;9.65;100.00;93237.41;5070281;28;20101;-71
2023/05/11 03:03:17;;;;;;;15.45;13.00;;;;;;;9.61;100.00;93236.22;5069951;28;20040;-71
2023/05/11 03:05:44;;;;;;;15.80;12.85;;;;;;;9.59;100.00;93231.28;5069471;28;20044;-71
2023/05/11 03:08:11;;;;;;;16.77;12.90;;;;;;;9.55;100.00;93231.91;5069521;28;20040;-72
2023/05/11 03:10:40;;;;;;;15.70;13.43;;;;;;;9.52;100.00;93227.16;5069843;28;20044;-71
2023/05/11 03:13:09;;;;;;;16.10;13.68;;;;;;;9.45;100.00;93229.78;5070261;28;20489;-72
2023/05/11 03:15:37;;;;;;;16.95;13.32;;;;;;;9.30;100.00;93228.22;5069925;28;20465;-72
2023/05/11 03:18:06;;;;;;;16.35;13.38;;;;;;;9.13;100.00;93227.06;5068930;28;20052;-72
2023/05/11 03:20:35;;;;;;;17.85;13.88;;;;;;;8.93;100.00;93215.88;5069855;28;20052;-71
2023/05/11 03:23:02;;;;;;;15.68;13.85;;;;;;;9.03;100.00;93227.50;5068897;28;20503;-72
2023/05/11 03:25:29;;;;;;;18.38;14.82;;;;;;;9.08;100.00;93223.34;5064767;28;20546;-72
2023/05/11 03:27:59;;;;;;;16.75;13.65;;;;;;;8.86;100.00;93232.22;5069431;28;20110;-72
2023/05/11 03:30:28;;;;;;;18.25;13.82;;;;;;;8.91;100.00;93224.72;5069377;28;20135;-71
2023/05/11 03:32:55;;;;;;;18.63;14.52;;;;;;;8.96;100.00;93222.38;5069507;28;20447;-71
2023/05/11 03:35:25;;;;;;;17.10;14.15;;;;;;;8.81;100.00;93225.16;5069800;28;20052;-71
2023/05/11 03:37:53;;;;;;;16.60;12.77;;;;;;;8.62;100.00;93224.97;5043564;28;20444;-72
2023/05/11 03:40:23;;;;;;;17.92;13.80;;;;;;;8.63;100.00;93223.16;5069360;28;20048;-72
2023/05/11 03:42:53;;;;;;;20.05;14.80;;;;;;;8.77;100.00;93227.31;5069126;28;20459;-72
2023/05/11 03:45:23;;;;;;;16.25;13.82;;;;;;;8.66;100.00;93218.44;5069440;28;20471;-72
2023/05/11 03:47:51;;;;;;;14.70;11.88;;;;;;;8.75;100.00;93229.28;5069008;28;20052;-71
2023/05/11 03:50:19;;;;;;;16.88;13.75;;;;;;;8.89;100.00;93231.84;5068671;28;20106;-72
2023/05/11 03:52:46;;;;;;;28.08;14.77;;;;;;;8.86;100.00;93235.59;5069018;28;20057;-72
2023/05/11 03:55:13;;;;;;;19.25;12.45;;;;;;;8.66;100.00;93222.78;5069009;28;20045;-72
2023/05/11 03:57:40;;;;;;;13.07;11.55;;;;;;;8.66;100.00;93238.16;5068993;28;20409;-71
2023/05/11 04:00:10;;;;;;;13.40;11.25;;;;;;;8.51;100.00;93233.97;5068256;28;20606;-72
2023/05/11 04:02:38;;;;;;;13.52;10.90;;;;;;;8.27;100.00;93218.19;5068891;28;20048;-72
2023/05/11 04:05:07;;;;;;;13.80;11.70;;;;;;;8.18;100.00;93244.16;5068826;28;20044;-72
2023/05/11 04:07:35;;;;;;;15.63;12.30;;;;;;;8.25;100.00;93248.28;5068539;28;20094;-72
2023/05/11 04:10:02;;;;;;;14.88;12.00;;;;;;;8.25;100.00;93245.75;5068663;28;20049;-71
2023/05/11 04:12:29;;;;;;;14.45;12.88;;;;;;;8.25;100.00;93252.66;5068418;28;20516;-72
2023/05/11 04:14:56;;;;;;;15.15;12.00;;;;;;;8.04;100.00;93251.03;5068195;28;20048;-72
2023/05/11 04:17:23;;;;;;;14.10;11.60;;;;;;;8.05;100.00;93239.81;5068555;28;20045;-72
2023/05/11 04:19:51;;;;;;;15.18;12.20;;;;;;;7.86;100.00;93244.66;5054783;28;20045;-72
2023/05/11 04:22:18;;;;;;;14.35;12.15;;;;;;;7.81;100.00;93247.78;5068231;28;20052;-72
2023/05/11 04:24:44;;;;;;;15.68;11.57;;;;;;;7.84;100.00;93252.53;5068191;28;20057;-72
2023/05/11 04:27:11;;;;;;;13.55;11.52;;;;;;;7.73;100.00;93258.97;5068389;28;20052;-72
2023/05/11 04:29:38;;;;;;;14.32;12.13;;;;;;;7.74;100.00;93257.97;5068367;28;20067;-72
2023/05/11 04:32:05;;;;;;;17.08;12.80;;;;;;;7.85;100.00;93264.34;5068121;28;20526;-72
2023/05/11 04:34:31;;;;;;;17.63;12.48;;;;;;;8.01;100.00;93268.31;5067880;28;20400;-72
2023/05/11 04:37:05;;;;;;;14.48;12.60;;;;;;;8.15;100.00;93263.25;5067701;28;20052;-72
2023/05/11 04:39:32;;;;;;;13.95;12.25;;;;;;;8.25;100.00;93270.56;5067903;28;20451;-72
2023/05/11 04:41:59;;;;;;;12.98;10.00;;;;;;;8.15;100.00;93258.91;5068492;28;20045;-72
2023/05/11 04:44:26;;;;;;;13.93;10.00;;;;;;;8.21;100.00;93277.03;5067730;28;20492;-72
2023/05/11 04:46:54;;;;;;;12.77;10.43;;;;;;;8.25;100.00;93275.69;5067947;28;20048;-72
2023/05/11 04:49:21;;;;;;;11.60;10.35;;;;;;;8.31;100.00;93274.91;5068302;28;20052;-72
2023/05/11 04:51:47;;;;;;;13.55;10.18;;;;;;;8.23;100.00;93288.66;5067608;28;20481;-72
2023/05/11 04:54:15;;;;;;;13.25;10.80;;;;;;;8.25;100.00;93289.25;5067907;28;20037;-72
2023/05/11 04:56:42;;;;;;;12.77;11.43;;;;;;;8.34;100.00;93294.97;5067868;28;20044;-72
2023/05/11 04:59:09;;;;;;;15.27;11.55;;;;;;;8.20;100.00;93275.47;5067619;28;20045;-72
2023/05/11 05:01:36;;;;;;;14.05;11.10;;;;;;;8.31;100.00;93289.44;5067731;28;20044;-72
2023/05/11 05:04:03;;;;;;;13.25;10.60;;;;;;;8.11;100.00;93293.53;5067429;28;20044;-71
2023/05/11 05:06:31;;;;;;;14.80;10.18;;;;;;;7.95;100.00;93293.88;5067272;28;20626;-71
2023/05/11 05:08:57;;;;;;;13.43;10.40;;;;;;;8.02;100.00;93289.59;5067483;28;20088;-72
2023/05/11 05:11:25;;;;;;;12.02;10.18;;;;;;;8.08;100.00;93293.94;5055648;28;20049;-71
2023/05/11 05:13:52;;;;;;;13.13;11.25;;;;;;;7.98;100.00;93290.94;5066934;28;20052;-71
2023/05/11 05:16:19;;;;;;;12.43;10.50;;;;;;;8.17;100.00;93289.44;5067706;28;20040;-71
2023/05/11 05:18:46;;;;;;;14.25;11.50;;;;;;;8.18;100.00;93293.56;5067155;28;20056;-71
2023/05/11 05:21:12;;;;;;;13.55;11.35;;;;;;;7.95;100.00;93247.81;5067752;28;20554;-72
2023/05/11 05:23:39;;;;;;;15.35;11.75;;;;;;;8.15;100.00;93287.06;5067227;28;20102;-71
2023/05/11 05:26:06;;;;;;;16.80;11.55;;;;;;;8.27;100.00;93286.50;5067287;28;20059;-72
2023/05/11 05:28:34;;;;;;;14.48;10.90;;;;;;;8.29;100.00;93298.13;5040950;28;20044;-72
2023/05/11 05:31:01;;;;;;;16.58;11.68;;;;;;;8.21;100.00;93300.88;5066928;28;20511;-71
2023/05/11 05:33:28;;;;;;;14.00;11.95;;;;;;;8.36;100.00;93303.25;5066754;28;20044;-71
2023/05/11 05:35:54;;;;;;;12.60;11.27;;;;;;;8.52;100.00;93303.94;5067264;28;20052;-71
2023/05/11 05:38:21;;;;;;;13.23;11.15;;;;;;;8.63;100.00;93300.78;5067325;28;20036;-71
2023/05/11 05:40:48;;;;;;;14.82;11.68;;;;;;;8.55;100.00;93298.41;5066623;28;20102;-72
2023/05/11 05:43:15;;;;;;;15.45;12.18;;;;;;;8.76;100.00;93306.91;5067397;28;20063;-71
2023/05/11 05:45:43;;;;;;;16.00;12.63;;;;;;;9.00;100.00;93309.88;5066548;28;20040;-72
2023/05/11 05:48:09;;;;;;;16.58;12.75;;;;;;;9.02;100.00;93313.03;5066448;28;20421;-72
2023/05/11 05:50:37;;;;;;;15.65;12.30;;;;;;;8.94;100.00;93309.66;5053553;28;20118;-72
2023/05/11 05:53:04;;;;;;;14.82;11.57;;;;;;;9.19;100.00;93306.53;5066935;28;20044;-72
2023/05/11 05:55:30;;;;;;;14.80;11.68;;;;;;;9.16;100.00;93312.03;5066423;28;20527;-72
2023/05/11 05:57:57;;;;;;;15.23;11.27;;;;;;;9.04;100.00;93313.63;5067163;28;20539;-72
2023/05/11 06:00:24;;;;;;;13.88;11.10;;;;;;;9.34;100.00;93306.31;5066486;28;20048;-72
2023/05/11 06:02:52;;;;;;;12.43;10.85;;;;;;;9.38;100.00;93309.25;5066766;28;20070;-72
2023/05/11 06:05:19;;;;;;;13.98;11.35;;;;;;;9.39;100.00;93320.31;5066821;28;20094;-72
2023/05/11 06:07:46;;;;;;;15.00;11.48;;;;;;;9.58;100.00;93319.47;5067312;28;20110;-72
2023/05/11 06:10:12;;;;;;;16.95;12.68;;;;;;;9.87;100.00;93312.28;5066843;28;20056;-72
2023/05/11 06:12:39;;;;;;;16.45;12.27;;;;;;;9.97;100.00;93317.03;5058486;28;20447;-72
2023/05/11 06:15:07;;;;;;;16.60;11.18;;;;;;;10.10;100.00;93316.16;5062637;28;20510;-72
2023/05/11 06:17:34;;;;;;;15.50;10.93;;;;;;;10.22;100.00;93328.34;5066755;28;20041;-72
2023/05/11 06:20:02;;;;;;;13.45;11.07;;;;;;;10.29;100.00;93329.91;5066533;28;20052;-72
2023/05/11 06:22:29;;;;;;;14.15;11.60;;;;;;;10.46;100.00;93324.31;5066832;28;20045;-72
2023/05/11 06:24:56;;;;;;;15.52;12.48;;;;;;;10.59;100.00;93332.97;5066623;28;20061;-72
2023/05/11 06:27:23;;;;;;;15.65;10.73;;;;;;;10.52;100.00;93323.50;5067172;28;20053;-72
2023/05/11 06:29:50;;;;;;;14.38;11.32;;;;;;;10.72;100.00;93337.22;5066392;28;20040;-72
2023/05/11 06:32:17;;;;;;;15.80;11.20;;;;;;;10.88;100.00;93331.59;5066757;28;20056;-72
2023/05/11 06:34:43;;;;;;;15.13;10.48;;;;;;;10.94;100.00;93332.56;5066094;28;20041;-72
2023/05/11 06:37:15;;;;;;;13.32;10.85;;;;;;;10.55;100.00;93337.72;5066397;28;20048;-72
2023/05/11 06:39:41;;;;;;;15.15;11.93;;;;;;;10.83;100.00;93334.78;5066630;28;20045;-72
2023/05/11 06:42:08;;;;;;;15.10;10.18;;;;;;;10.98;100.00;93341.44;5066518;28;20048;-72
2023/05/11 06:44:35;;;;;;;16.95;11.65;;;;;;;10.90;100.00;93337.31;5066866;28;20447;-72
2023/05/11 06:47:01;;;;;;;14.57;10.73;;;;;;;10.94;100.00;93335.88;5065859;28;20558;-72
2023/05/11 06:49:28;;;;;;;13.43;11.02;;;;;;;11.12;100.00;93333.59;5066536;28;20071;-72
2023/05/11 06:51:55;;;;;;;15.48;11.48;;;;;;;11.08;100.00;93333.25;5066994;28;20052;-72
2023/05/11 06:54:23;;;;;;;14.35;10.95;;;;;;;10.96;100.00;93310.00;5069460;28;20044;-72
2023/05/11 06:56:50;;;;;;;12.77;10.93;;;;;;;11.06;100.00;93336.00;5070392;28;20040;-72
2023/05/11 06:59:17;;;;;;;13.75;10.75;;;;;;;10.79;100.00;93332.84;5069895;28;20052;-72
2023/05/11 07:01:44;;;;;;;15.30;11.77;;;;;;;10.91;100.00;93330.38;5069956;28;20417;-72
2023/05/11 07:04:11;;;;;;;13.70;10.70;;;;;;;11.06;100.00;93336.00;5069277;28;20580;-72
2023/05/11 07:06:37;;;;;;;15.85;10.95;;;;;;;10.95;100.00;93342.63;5069822;28;20056;-72
2023/05/11 07:09:04;;;;;;;12.88;9.73;;;;;;;10.99;100.00;93347.34;5069658;28;20059;-72
2023/05/11 07:11:32;;;;;;;17.45;10.50;;;;;;;11.12;100.00;93339.56;5070004;28;20091;-72
2023/05/11 07:13:59;;;;;;;13.73;10.88;;;;;;;11.03;100.00;93340.78;5069693;28;20049;-72
2023/05/11 07:16:26;;;;;;;17.35;11.52;;;;;;;11.16;100.00;93340.69;5069431;28;20048;-72
2023/05/11 07:18:53;;;;;;;15.32;10.90;;;;;;;11.29;100.00;93337.22;5070070;28;20049;-72
2023/05/11 07:21:20;;;;;;;47.35;25.67;;;;;;;11.16;100.00;93342.47;5069851;28;20056;-72
2023/05/11 07:23:47;;;;;;;71.43;35.97;;;;;;;11.08;100.00;93341.72;5069465;28;20055;-72
2023/05/11 07:26:14;;;;;;;28.75;16.67;;;;;;;11.06;100.00;93348.88;5069532;28;20048;-72
2023/05/11 07:28:42;;;;;;;17.40;12.70;;;;;;;11.34;100.00;93349.47;5069857;28;20090;-72
2023/05/11 07:31:09;;;;;;;18.27;11.88;;;;;;;11.39;100.00;93344.47;5069099;28;20041;-72
2023/05/11 07:33:38;;;;;;;17.52;12.40;;;;;;;11.39;100.00;93344.47;5069831;28;20048;-72
2023/05/11 07:36:06;;;;;;;20.05;14.38;;;;;;;11.22;100.00;93316.69;5069537;28;20409;-72
2023/05/11 07:38:32;;;;;;;16.13;10.82;;;;;;;11.11;100.00;93345.66;5069798;28;20045;-72
2023/05/11 07:40:59;;;;;;;17.38;12.07;;;;;;;11.17;100.00;93342.28;5069001;28;20044;-72
2023/05/11 07:43:26;;;;;;;17.15;10.68;;;;;;;11.44;100.00;93344.63;5069562;28;20398;-72
2023/05/11 07:45:54;;;;;;;14.88;11.38;;;;;;;11.49;100.00;93349.13;5068833;28;20071;-72
2023/05/11 07:48:21;;;;;;;17.25;11.75;;;;;;;11.50;100.00;93315.47;5069160;28;20056;-72
2023/05/11 07:50:49;;;;;;;15.10;11.45;;;;;;;11.84;100.00;93348.59;5068725;28;20465;-72
2023/05/11 07:53:16;;;;;;;17.17;12.40;;;;;;;11.76;100.00;93354.03;5069247;28;20072;-72
2023/05/11 07:55:43;;;;;;;16.20;10.88;;;;;;;11.70;100.00;93350.53;5069142;28;20040;-72
2023/05/11 07:58:10;;;;;;;16.45;12.43;;;;;;;11.83;100.00;93335.94;5068670;28;20048;-72
2023/05/11 08:00:36;;;;;;;17.45;11.93;;;;;;;11.95;100.00;93352.25;5068920;28;20094;-72
2023/05/11 08:03:05;;;;;;;15.57;11.77;;;;;;;12.09;100.00;93354.72;5069079;28;20049;-72
2023/05/11 08:05:36;;;;;;;15.52;11.48;;;;;;;11.81;100.00;93349.03;5068355;28;20094;-72
2023/05/11 08:08:03;;;;;;;12.85;10.73;;;;;;;12.03;100.00;93364.84;5069017;28;20048;-72
2023/05/11 08:10:30;;;;;;;16.98;11.88;;;;;;;11.59;100.00;93362.31;5068261;28;20095;-72
2023/05/11 08:12:57;;;;;;;14.80;11.30;;;;;;;11.60;100.00;93355.38;5068081;28;20049;-72
2023/05/11 08:15:23;;;;;;;16.27;12.52;;;;;;;11.62;100.00;93367.03;5068825;28;20036;-72
2023/05/11 08:17:50;;;;;;;16.52;12.35;;;;;;;11.73;100.00;93362.19;5068063;28;20650;-72
2023/05/11 08:20:19;;;;;;;15.70;11.73;;;;;;;11.72;100.00;93361.38;5068533;28;20044;-72
2023/05/11 08:22:45;;;;;;;15.35;12.07;;;;;;;11.77;100.00;93361.53;5068847;28;20052;-73
2023/05/11 08:25:13;;;;;;;15.50;11.40;;;;;;;11.66;100.00;93362.22;5068715;28;20055;-72
2023/05/11 08:27:40;;;;;;;17.25;12.05;;;;;;;11.77;100.00;93358.97;5068542;28;20092;-72
2023/05/11 08:30:08;;;;;;;15.65;11.52;;;;;;;11.35;100.00;93359.53;5068612;28;20040;-72
2023/05/11 08:32:36;;;;;;;15.25;12.32;;;;;;;11.30;100.00;93367.09;5068682;28;20041;-72
2023/05/11 08:35:04;;;;;;;16.35;12.18;;;;;;;11.42;100.00;93369.75;5068363;28;20082;-72
2023/05/11 08:37:32;;;;;;;14.77;10.48;;;;;;;11.30;100.00;93374.78;5068253;28;20166;-72
2023/05/11 08:39:59;;;;;;;27.85;13.80;;;;;;;11.59;100.00;93369.22;5068261;28;20086;-72
2023/05/11 08:42:29;;;;;;;19.85;14.32;;;;;;;11.57;100.00;93366.88;5054557;28;20056;-72
2023/05/11 08:44:58;;;;;;;18.75;14.00;;;;;;;11.38;100.00;93371.19;5068277;28;21096;-72
2023/05/11 08:47:25;;;;;;;15.43;11.45;;;;;;;11.42;100.00;93367.19;5068011;28;20063;-72
2023/05/11 08:49:52;;;;;;;15.30;11.57;;;;;;;11.44;100.00;93346.41;5068319;28;20481;-72
2023/05/11 08:52:19;;;;;;;15.50;11.18;;;;;;;11.45;100.00;93346.22;5067935;28;20596;-72
2023/05/11 08:54:48;;;;;;;15.15;10.68;;;;;;;11.54;100.00;93351.06;5068183;28;20072;-72
2023/05/11 08:57:15;;;;;;;14.68;11.55;;;;;;;11.68;100.00;93355.09;5067812;28;20048;-72
2023/05/11 08:59:45;;;;;;;14.77;11.45;;;;;;;11.75;100.00;93337.81;5048612;28;20425;-72
2023/05/11 09:02:16;;;;;;;16.02;11.75;;;;;;;11.98;100.00;93331.22;5064965;28;20052;-72
2023/05/11 09:04:44;;;;;;;16.80;11.13;;;;;;;11.78;100.00;93316.00;5067924;28;20044;-72
2023/05/11 09:07:11;;;;;;;15.52;11.18;;;;;;;11.83;100.00;93344.47;5067213;28;20036;-72
2023/05/11 09:09:40;;;;;;;16.20;11.00;;;;;;;12.01;100.00;93343.69;5067693;28;20113;-72
2023/05/11 09:12:09;;;;;;;13.85;10.82;;;;;;;12.06;100.00;93337.91;5067537;28;20146;-72
2023/05/11 09:14:36;;;;;;;15.18;10.27;;;;;;;12.30;100.00;93340.59;5067615;28;20052;-72
2023/05/11 09:17:03;;;;;;;20.42;15.32;;;;;;;12.32;100.00;93345.53;5066927;28;20586;-72
2023/05/11 09:19:30;;;;;;;15.40;11.50;;;;;;;12.65;100.00;93344.34;5067581;28;20075;-72
2023/05/11 09:21:59;;;;;;;20.67;13.13;;;;;;;12.74;100.00;93347.41;5067022;28;20517;-72
2023/05/11 09:24:26;;;;;;;10.80;8.05;;;;;;;12.13;100.00;93348.16;5067473;28;20509;-72
2023/05/11 09:27:07;;;;;;;15.48;10.73;;;;;;;12.37;100.00;93350.84;5067149;28;20459;-72
2023/05/11 09:29:35;;;;;;;15.02;10.20;;;;;;;12.70;100.00;93344.47;5067384;28;20099;-72
2023/05/11 09:32:02;;;;;;;12.98;10.18;;;;;;;12.75;100.00;93343.81;5067649;28;20053;-72
2023/05/11 09:34:29;;;;;;;12.38;8.60;;;;;;;12.79;100.00;93334.63;5067310;28;20098;-72
2023/05/11 09:36:58;;;;;;;10.98;8.57;;;;;;;12.92;100.00;93336.25;5067317;28;20408;-72
2023/05/11 09:39:33;;;;;;;11.65;9.45;;;;;;;12.95;98.80;93336.59;5067431;28;20058;-72
2023/05/11 09:42:17;;;;;;;13.45;9.75;;;;;;;13.14;100.00;93335.72;5056522;28;20048;-72
2023/05/11 09:44:46;;;;;;;11.68;9.35;;;;;;;13.05;99.15;93323.16;5054599;28;20086;-72
2023/05/11 09:47:15;;;;;;;11.57;9.10;;;;;;;12.96;99.73;93334.78;5067037;28;20161;-72
2023/05/11 09:49:43;;;;;;;12.80;9.00;;;;;;;13.27;100.00;93320.03;5067647;28;20465;-72
2023/05/11 09:52:11;;;;;;;8.50;7.28;;;;;;;12.99;98.46;93315.50;5067381;28;20103;-72
2023/05/11 09:54:43;;;;;;;12.32;9.90;;;;;;;13.09;99.50;93320.91;5067048;28;20102;-72
2023/05/11 09:57:23;;;;;;;14.43;10.07;;;;;;;12.88;100.00;93310.13;5067018;28;20067;-72
2023/05/11 09:59:51;;;;;;;13.73;10.65;;;;;;;13.05;100.00;93302.50;5067665;28;20080;-72
2023/05/11 10:02:20;;;;;;;11.73;9.38;;;;;;;13.17;100.00;93301.75;5067462;28;20430;-72
2023/05/11 10:04:48;;;;;;;10.68;8.35;;;;;;;13.42;97.93;93300.75;5067109;28;20572;-72
2023/05/11 10:07:26;;;;;;;11.35;9.25;;;;;;;13.15;98.98;93303.78;5066625;28;20072;-72
2023/05/11 10:09:54;;;;;;;11.23;9.52;;;;;;;13.28;100.00;93300.19;5066604;28;20087;-72
2023/05/11 10:12:22;;;;;;;10.52;8.15;;;;;;;13.72;98.24;93294.69;5067199;28;20040;-72
2023/05/11 10:14:51;;;;;;;10.85;8.75;;;;;;;13.93;98.20;93295.88;5067162;28;20070;-72
2023/05/11 10:17:19;;;;;;;14.50;11.30;;;;;;;14.02;97.64;93276.44;5066898;28;20041;-73
2023/05/11 10:19:47;;;;;;;12.45;9.20;;;;;;;13.30;99.31;93293.81;5066928;28;20936;-72
2023/05/11 10:22:16;;;;;;;9.07;8.00;;;;;;;13.39;98.64;93286.50;5067100;28;20053;-72
2023/05/11 10:24:42;;;;;;;12.43;9.95;;;;;;;13.65;100.00;93286.31;5066619;28;20403;-72
2023/05/11 10:27:11;;;;;;;10.48;9.30;;;;;;;13.82;98.75;93291.53;5068393;28;20122;-72
2023/05/11 10:29:38;;;;;;;12.85;9.60;;;;;;;13.52;100.00;93289.91;5070399;28;20048;-73
2023/05/11 10:32:08;;;;;;;12.45;8.20;;;;;;;13.88;97.36;93288.84;5070289;28;20102;-72
2023/05/11 10:34:38;;;;;;;8.50;7.15;;;;;;;14.17;92.47;93293.25;5070828;28;20147;-73
2023/05/11 10:37:05;;;;;;;9.07;7.50;;;;;;;14.28;96.04;93283.91;5070479;28;20044;-72
2023/05/11 10:39:32;;;;;;;10.88;7.80;;;;;;;14.72;92.92;93293.69;5070272;28;20048;-73
2023/05/11 10:42:23;;;;;;;11.82;7.72;;;;;;;15.00;92.18;93289.50;5070557;28;20090;-73
2023/05/11 10:45:06;;;;;;;76.90;34.25;;;;;;;15.32;90.84;93281.19;5070491;28;20044;-72
2023/05/11 10:48:01;;;;;;;11.40;8.75;;;;;;;14.90;88.74;93287.56;5069902;28;20443;-73
2023/05/11 10:51:06;;;;;;;10.73;7.53;;;;;;;14.67;91.88;93293.59;5026296;28;20048;-72
2023/05/11 10:53:57;;;;;;;9.52;7.93;;;;;;;15.03;94.31;93285.66;5066568;28;20055;-73
2023/05/11 10:56:38;;;;;;;10.45;7.45;;;;;;;14.83;90.03;93279.16;5049842;28;20048;-73
2023/05/11 10:59:27;;;;;;;11.13;7.85;;;;;;;15.04;91.83;93285.44;5069995;28;20048;-73
2023/05/11 11:01:57;;;;;;;9.90;8.38;;;;;;;15.18;92.75;93269.63;5070100;28;20052;-72
2023/05/11 11:04:42;;;;;;;13.98;8.00;;;;;;;15.26;88.73;93240.75;5070270;28;20036;-73
2023/05/11 11:07:10;;;;;;;10.02;7.68;;;;;;;15.12;89.12;93279.09;5069514;28;20106;-73
2023/05/11 11:09:56;;;;;;;9.05;7.82;;;;;;;14.37;93.33;93273.97;5070260;28;20056;-72
2023/05/11 11:12:25;;;;;;;10.68;7.20;;;;;;;14.33;94.52;93280.59;5069616;28;20047;-73
2023/05/11 11:14:57;;;;;;;11.38;7.90;;;;;;;14.15;93.91;93285.75;5069426;28;20052;-72
2023/05/11 11:17:26;;;;;;;9.00;7.75;;;;;;;14.32;94.61;93279.03;5069852;28;20037;-72
2023/05/11 11:19:55;;;;;;;9.13;7.30;;;;;;;14.11;93.48;93276.88;5069944;28;20052;-72
2023/05/11 11:22:45;;;;;;;11.27;8.23;;;;;;;13.94;96.15;93276.03;5069796;28;20131;-73
2023/05/11 11:25:13;;;;;;;16.48;9.80;;;;;;;14.13;96.28;93269.66;5069703;28;20053;-72